Time;durP1;ratioP1;P1;durP2;ratioP2;P2;SDS_P1;SDS_P2;PMS_P1;PMS_P2;Temp;Humidity;BMP_temperature;BMP_pressure;BME280_temperature;BME280_humidity;BME280_pressure;Samples;Min_cycle;Max_cycle;Signal;HPM_P1;HPM_P2
2021/04/20 00:00:32;;;;;;;34.78;27.38;;;;;;;7.02;100.00;99504.00;4953201;29;20211;-71
2021/04/20 00:02:58;;;;;;;34.08;26.60;;;;;;;6.95;100.00;99496.31;4953576;29;20211;-72
2021/04/20 00:05:24;;;;;;;38.83;28.63;;;;;;;7.06;100.00;99502.06;4953151;28;20584;-72
2021/04/20 00:07:50;;;;;;;36.58;27.70;;;;;;;6.93;100.00;99498.19;4956527;28;20192;-72
2021/04/20 00:10:19;;;;;;;38.53;28.38;;;;;;;6.84;100.00;99502.16;4956701;29;20240;-72
2021/04/20 00:12:47;;;;;;;37.55;28.17;;;;;;;6.73;100.00;99494.59;4956914;29;20284;-72
2021/04/20 00:15:19;;;;;;;39.85;29.27;;;;;;;6.66;100.00;99498.47;4956753;28;20287;-72
2021/04/20 00:17:45;;;;;;;41.45;29.50;;;;;;;6.68;100.00;99496.59;4956814;28;20556;-70
2021/04/20 00:20:14;;;;;;;40.55;29.23;;;;;;;6.71;100.00;99488.44;4956685;29;20193;-72
2021/04/20 00:22:40;;;;;;;35.97;27.20;;;;;;;6.76;100.00;99497.16;4956552;28;20245;-71
2021/04/20 00:25:08;;;;;;;41.83;29.70;;;;;;;6.75;100.00;99495.41;4956800;29;20683;-71
2021/04/20 00:27:34;;;;;;;43.65;30.85;;;;;;;6.63;100.00;99499.47;4956587;28;20679;-72
2021/04/20 00:30:01;;;;;;;42.05;29.55;;;;;;;6.51;100.00;99483.94;4955897;28;20197;-72
2021/04/20 00:32:27;;;;;;;39.75;28.20;;;;;;;6.65;100.00;99483.38;4956269;28;20655;-71
2021/04/20 00:34:53;;;;;;;37.85;28.27;;;;;;;6.67;100.00;99489.50;4956222;28;20276;-71
2021/04/20 00:37:19;;;;;;;36.17;28.67;;;;;;;6.76;100.00;99481.09;4956319;29;20320;-71
2021/04/20 00:39:45;;;;;;;37.13;27.88;;;;;;;6.78;100.00;99479.19;4956161;29;20279;-71
2021/04/20 00:42:11;;;;;;;37.60;28.00;;;;;;;6.95;100.00;99474.91;4955967;28;20205;-71
2021/04/20 00:44:38;;;;;;;36.00;27.77;;;;;;;6.84;100.00;99484.28;4956238;29;20224;-72
2021/04/20 00:47:05;;;;;;;41.17;28.15;;;;;;;7.00;100.00;99472.88;4955903;28;20278;-71
2021/04/20 00:49:31;;;;;;;38.97;27.30;;;;;;;7.02;100.00;99476.38;4956221;29;20205;-71
2021/04/20 00:51:58;;;;;;;38.60;29.58;;;;;;;7.11;100.00;99475.94;4956274;28;20189;-70
2021/04/20 00:54:24;;;;;;;43.28;29.08;;;;;;;7.20;100.00;99478.19;4956081;29;20196;-72
2021/04/20 00:56:51;;;;;;;48.20;32.80;;;;;;;7.25;100.00;99480.66;4956021;29;20208;-72
2021/04/20 00:59:17;;;;;;;44.20;31.25;;;;;;;7.34;100.00;99480.22;4955863;29;20288;-71
2021/04/20 01:01:45;;;;;;;51.20;34.05;;;;;;;7.35;100.00;99486.44;4955718;29;20352;-71
2021/04/20 01:04:13;;;;;;;49.90;32.70;;;;;;;7.39;100.00;99477.34;4955193;29;20244;-71
2021/04/20 01:06:39;;;;;;;44.83;31.05;;;;;;;7.46;100.00;99474.31;4955911;29;20291;-70
2021/04/20 01:09:06;;;;;;;54.55;32.42;;;;;;;7.48;100.00;99471.53;4955874;28;20315;-70
2021/04/20 01:11:37;;;;;;;45.55;31.67;;;;;;;7.40;100.00;99473.72;4955834;29;20192;-70
2021/04/20 01:14:04;;;;;;;59.63;33.50;;;;;;;7.35;100.00;99481.09;4955913;28;20639;-72
2021/04/20 01:16:31;;;;;;;69.75;35.20;;;;;;;7.46;100.00;99476.09;4955163;29;20296;-72
2021/04/20 01:18:58;;;;;;;52.70;34.30;;;;;;;7.55;100.00;99469.44;4955530;28;20185;-71
2021/04/20 01:21:25;;;;;;;57.05;32.60;;;;;;;7.50;100.00;99475.03;4955657;28;20664;-71
2021/04/20 01:23:58;;;;;;;58.90;34.40;;;;;;;7.67;99.89;99469.72;4955332;29;20260;-71
2021/04/20 01:26:27;;;;;;;49.95;34.20;;;;;;;7.72;99.21;99467.69;4955564;29;20699;-72
2021/04/20 01:28:55;;;;;;;58.45;32.13;;;;;;;7.32;100.00;99472.25;4955379;28;20185;-71
2021/04/20 01:31:21;;;;;;;60.05;32.53;;;;;;;7.35;100.00;99465.03;4955477;29;20524;-72
2021/04/20 01:33:48;;;;;;;59.40;31.95;;;;;;;7.31;100.00;99470.53;4955392;29;20272;-71
2021/04/20 01:36:18;;;;;;;57.58;31.25;;;;;;;7.32;100.00;99464.22;4955424;29;20281;-72
2021/04/20 01:38:46;;;;;;;50.42;30.85;;;;;;;7.18;100.00;99466.69;4955410;28;20209;-73
2021/04/20 01:41:12;;;;;;;66.07;34.17;;;;;;;6.67;100.00;99466.31;4955422;29;20586;-69
2021/04/20 01:43:40;;;;;;;61.20;34.72;;;;;;;6.56;100.00;99457.88;4955031;29;20260;-72
2021/04/20 01:46:06;;;;;;;65.88;34.50;;;;;;;6.79;100.00;99456.88;4954844;28;20201;-73
2021/04/20 01:48:33;;;;;;;59.83;32.88;;;;;;;6.79;100.00;99459.53;4954683;29;20204;-71
2021/04/20 01:51:00;;;;;;;50.58;32.95;;;;;;;6.70;100.00;99454.59;4955181;28;20592;-71
2021/04/20 01:53:27;;;;;;;51.22;34.20;;;;;;;6.41;100.00;99451.38;4954795;28;20208;-70
2021/04/20 01:55:57;;;;;;;57.50;34.33;;;;;;;6.33;100.00;99455.31;4954846;29;20275;-72
2021/04/20 01:58:24;;;;;;;55.85;33.63;;;;;;;6.46;100.00;99453.88;4954946;29;20213;-72
2021/04/20 02:00:52;;;;;;;56.55;33.53;;;;;;;6.44;100.00;99448.59;4954576;29;20299;-71
2021/04/20 02:03:18;;;;;;;73.70;36.08;;;;;;;6.26;100.00;99452.94;4955073;28;20235;-72
2021/04/20 02:05:45;;;;;;;50.50;33.40;;;;;;;6.56;100.00;99455.22;4954734;28;20232;-71
2021/04/20 02:08:12;;;;;;;53.08;33.65;;;;;;;6.67;100.00;99455.63;4954555;29;20215;-72
2021/04/20 02:10:39;;;;;;;54.70;32.78;;;;;;;6.64;100.00;99462.88;4954538;28;20188;-72
2021/04/20 02:13:05;;;;;;;67.32;35.33;;;;;;;6.74;100.00;99458.00;4954623;29;20299;-72
2021/04/20 02:15:31;;;;;;;50.00;31.63;;;;;;;6.76;100.00;99454.34;4954368;28;20193;-72
2021/04/20 02:18:00;;;;;;;56.95;31.95;;;;;;;6.48;100.00;99457.34;4954327;28;20252;-71
2021/04/20 02:20:29;;;;;;;54.60;31.30;;;;;;;6.53;100.00;99455.34;4954334;28;20209;-72
2021/04/20 02:22:56;;;;;;;53.97;31.77;;;;;;;6.58;100.00;99455.13;4954838;29;20196;-70
2021/04/20 02:25:24;;;;;;;60.28;32.72;;;;;;;6.49;100.00;99459.09;4954620;28;20193;-71
2021/04/20 02:27:51;;;;;;;43.80;29.38;;;;;;;6.63;100.00;99454.00;4954440;28;20203;-72
2021/04/20 02:30:18;;;;;;;44.92;30.02;;;;;;;6.63;100.00;99459.34;4953703;28;20666;-73
2021/04/20 02:32:45;;;;;;;42.63;31.58;;;;;;;6.74;100.00;99456.22;4953844;29;20200;-71
2021/04/20 02:35:14;;;;;;;40.22;29.30;;;;;;;6.51;100.00;99451.84;4954019;29;20213;-71
2021/04/20 02:37:42;;;;;;;37.47;28.50;;;;;;;6.65;100.00;99461.97;4954017;29;20216;-70
2021/04/20 02:40:11;;;;;;;39.92;28.85;;;;;;;6.53;98.95;99451.78;4953879;29;20193;-72
2021/04/20 02:42:39;;;;;;;37.38;27.48;;;;;;;6.29;99.73;99451.94;4953887;28;20207;-70
2021/04/20 02:45:08;;;;;;;40.83;26.50;;;;;;;6.18;98.56;99448.84;4954413;29;20651;-70
2021/04/20 02:47:35;;;;;;;36.05;27.77;;;;;;;6.11;96.44;99456.25;4953638;28;20200;-72
2021/04/20 02:50:02;;;;;;;36.97;26.80;;;;;;;5.72;97.27;99464.06;4954359;28;20624;-72
2021/04/20 02:52:31;;;;;;;34.53;26.15;;;;;;;5.87;96.97;99463.44;4953652;29;20287;-71
2021/04/20 02:54:57;;;;;;;40.22;27.58;;;;;;;5.74;97.32;99463.06;4954286;29;20216;-72
2021/04/20 02:57:23;;;;;;;36.83;25.80;;;;;;;5.64;97.64;99457.22;4954211;29;20614;-71
2021/04/20 02:59:50;;;;;;;38.22;29.17;;;;;;;5.56;98.33;99462.03;4953786;29;20201;-72
2021/04/20 03:02:18;;;;;;;36.22;26.65;;;;;;;5.62;98.48;99463.56;4953760;29;20235;-73
2021/04/20 03:04:45;;;;;;;39.03;27.67;;;;;;;5.69;99.09;99450.84;4953890;29;20272;-73
2021/04/20 03:07:13;;;;;;;41.00;28.60;;;;;;;5.67;99.75;99452.69;4953761;29;20188;-71
2021/04/20 03:09:41;;;;;;;44.53;27.73;;;;;;;5.58;100.00;99453.94;4953808;29;20271;-71
2021/04/20 03:12:08;;;;;;;42.53;29.65;;;;;;;5.58;100.00;99456.59;4953957;29;20703;-72
2021/04/20 03:14:36;;;;;;;44.60;29.60;;;;;;;5.47;100.00;99459.69;4953623;28;20291;-70
2021/04/20 03:17:02;;;;;;;51.42;32.22;;;;;;;5.32;100.00;99458.50;4953735;29;20191;-71
2021/04/20 03:19:28;;;;;;;42.97;30.95;;;;;;;5.31;100.00;99458.56;4954125;29;20208;-71
2021/04/20 03:21:55;;;;;;;48.35;31.75;;;;;;;5.28;100.00;99454.22;4953870;28;20235;-70
2021/04/20 03:24:54;;;;;;;47.33;33.17;;;;;;;5.38;100.00;99460.06;4953535;29;20196;-71
2021/04/20 03:27:21;;;;;;;50.92;31.15;;;;;;;5.48;100.00;99453.44;4919553;28;20204;-70
2021/04/20 03:29:47;;;;;;;45.65;29.40;;;;;;;5.21;100.00;99453.59;4953839;28;20207;-72
2021/04/20 03:32:14;;;;;;;48.60;31.33;;;;;;;5.08;100.00;99454.13;4953662;28;20291;-70
2021/04/20 03:34:49;;;;;;;42.90;30.63;;;;;;;5.11;100.00;99452.22;4954049;28;20218;-71
2021/04/20 03:37:21;;;;;;;42.80;29.17;;;;;;;5.15;100.00;99442.28;4953653;29;20576;-71
2021/04/20 03:39:52;;;;;;;42.88;27.65;;;;;;;5.04;100.00;99448.00;4953456;28;20196;-72
2021/04/20 03:42:23;;;;;;;43.03;28.38;;;;;;;5.12;100.00;99447.75;4955838;28;20288;-73
2021/04/20 03:44:52;;;;;;;46.22;28.73;;;;;;;5.18;100.00;99450.19;4957669;28;20662;-71
2021/04/20 03:47:25;;;;;;;42.95;29.15;;;;;;;5.03;100.00;99446.28;4957158;29;20189;-71
2021/04/20 03:49:55;;;;;;;41.42;28.95;;;;;;;4.93;100.00;99447.53;4957289;29;20689;-71
2021/04/20 03:52:26;;;;;;;40.30;26.65;;;;;;;5.07;100.00;99447.91;4956988;29;20221;-70
2021/04/20 03:54:54;;;;;;;44.00;29.25;;;;;;;4.84;100.00;99443.44;4957084;29;20200;-71
2021/04/20 03:57:24;;;;;;;40.22;28.80;;;;;;;4.89;100.00;99441.47;4956907;29;20260;-71
2021/04/20 03:59:52;;;;;;;38.75;26.63;;;;;;;4.85;100.00;99437.16;4956910;29;20674;-70
2021/04/20 04:02:19;;;;;;;46.92;29.70;;;;;;;4.96;100.00;99442.13;4957406;28;20211;-72
2021/04/20 04:04:46;;;;;;;38.72;27.02;;;;;;;5.16;100.00;99449.38;4956760;28;20252;-73
2021/04/20 04:07:17;;;;;;;43.85;28.48;;;;;;;5.23;99.59;99451.72;4956865;28;20221;-70
2021/04/20 04:09:45;;;;;;;37.83;25.02;;;;;;;5.16;98.67;99447.56;4956942;28;20644;-71
2021/04/20 04:12:14;;;;;;;38.72;28.02;;;;;;;5.23;98.19;99443.72;4956498;29;20207;-71
2021/04/20 04:14:42;;;;;;;34.90;26.02;;;;;;;4.84;99.42;99445.22;4956855;29;20280;-70
2021/04/20 04:17:13;;;;;;;39.97;25.98;;;;;;;4.65;100.00;99447.72;4956865;29;20199;-70
2021/04/20 04:19:43;;;;;;;40.90;27.45;;;;;;;4.80;100.00;99447.16;4956503;29;20202;-71
2021/04/20 04:22:11;;;;;;;40.47;27.75;;;;;;;4.73;100.00;99443.84;4956833;28;20711;-72
2021/04/20 04:24:42;;;;;;;37.83;26.92;;;;;;;4.77;100.00;99448.16;4956815;28;20294;-71
2021/04/20 04:27:12;;;;;;;34.22;25.27;;;;;;;4.81;100.00;99439.06;4956112;28;20196;-72
2021/04/20 04:29:39;;;;;;;56.22;27.85;;;;;;;5.01;100.00;99440.13;4956741;29;20602;-71
2021/04/20 04:32:08;;;;;;;39.70;26.58;;;;;;;5.13;98.87;99445.03;4956192;29;20688;-71
2021/04/20 04:34:36;;;;;;;37.50;26.83;;;;;;;4.97;98.01;99443.84;4956222;29;20235;-71
2021/04/20 04:37:02;;;;;;;38.05;26.42;;;;;;;5.03;96.93;99438.28;4956484;28;20216;-70
2021/04/20 04:39:29;;;;;;;41.25;26.95;;;;;;;5.18;96.27;99447.50;4956307;29;20227;-71
2021/04/20 04:41:55;;;;;;;37.03;25.52;;;;;;;5.11;95.67;99446.88;4956046;29;20273;-71
2021/04/20 04:44:22;;;;;;;34.65;24.27;;;;;;;4.88;95.00;99446.84;4956063;28;20199;-72
2021/04/20 04:46:48;;;;;;;38.75;26.42;;;;;;;4.87;95.04;99448.66;4956286;29;20243;-72
2021/04/20 04:49:16;;;;;;;38.17;25.77;;;;;;;4.73;96.16;99446.50;4956157;29;20188;-70
2021/04/20 04:51:42;;;;;;;37.00;25.73;;;;;;;4.53;96.61;99444.56;4955168;28;20294;-72
2021/04/20 04:54:11;;;;;;;41.28;27.30;;;;;;;4.63;96.16;99450.41;4955964;29;20280;-71
2021/04/20 04:56:40;;;;;;;39.63;27.15;;;;;;;4.57;96.25;99453.34;4955736;29;20188;-71
2021/04/20 04:59:08;;;;;;;42.03;25.83;;;;;;;4.56;95.80;99457.78;4955496;29;20228;-72
2021/04/20 05:01:36;;;;;;;37.40;27.20;;;;;;;4.63;95.37;99457.56;4955226;29;20207;-71
2021/04/20 05:04:06;;;;;;;39.70;26.95;;;;;;;4.42;94.91;99456.53;4955698;29;20211;-70
2021/04/20 05:06:38;;;;;;;40.67;27.77;;;;;;;4.23;96.52;99464.28;4955350;29;20237;-72
2021/04/20 05:09:08;;;;;;;41.53;25.77;;;;;;;4.47;96.47;99467.91;4955188;28;20228;-71
2021/04/20 05:11:36;;;;;;;38.13;25.88;;;;;;;4.71;95.50;99460.81;4953970;28;20208;-71
2021/04/20 05:14:02;;;;;;;35.10;26.35;;;;;;;4.65;95.34;99463.72;4955396;28;20221;-72
2021/04/20 05:16:28;;;;;;;38.50;26.42;;;;;;;4.62;94.85;99464.69;4955559;28;20632;-72
2021/04/20 05:18:55;;;;;;;36.20;26.05;;;;;;;4.69;95.02;99462.69;4955600;29;20297;-71
2021/04/20 05:21:22;;;;;;;43.53;28.33;;;;;;;4.74;94.50;99471.38;4955283;29;20226;-72
2021/04/20 05:23:53;;;;;;;36.33;25.08;;;;;;;4.70;94.08;99467.06;4954694;29;20197;-73
2021/04/20 05:26:19;;;;;;;38.88;26.90;;;;;;;4.67;94.36;99469.84;4958827;28;21140;-73
2021/04/20 05:28:45;;;;;;;37.70;27.55;;;;;;;4.74;93.68;99471.38;4954097;29;20317;-72
2021/04/20 05:31:11;;;;;;;35.42;25.65;;;;;;;4.69;93.95;99471.53;4954190;29;20766;-70
2021/04/20 05:33:38;;;;;;;44.45;28.83;;;;;;;4.96;93.81;99466.13;4954691;28;20223;-70
2021/04/20 05:36:05;;;;;;;40.20;27.42;;;;;;;5.03;93.27;99472.97;4954606;29;20235;-70
2021/04/20 05:38:32;;;;;;;39.58;27.77;;;;;;;5.21;92.84;99468.75;4954575;29;20581;-73
2021/04/20 05:41:00;;;;;;;43.30;27.30;;;;;;;5.22;92.79;99459.78;4953738;28;20244;-71
2021/04/20 05:43:26;;;;;;;39.58;27.85;;;;;;;5.29;92.64;99464.00;4954364;29;20670;-71
2021/04/20 05:45:53;;;;;;;39.97;27.30;;;;;;;5.32;93.32;99465.66;4953992;29;20235;-72
2021/04/20 05:48:19;;;;;;;38.35;26.70;;;;;;;5.49;92.67;99467.66;4953896;29;20301;-71
2021/04/20 05:50:50;;;;;;;36.97;26.73;;;;;;;5.44;92.87;99466.03;4953938;29;20579;-72
2021/04/20 05:53:17;;;;;;;35.58;24.95;;;;;;;5.44;92.21;99460.69;4953715;29;20779;-72
2021/04/20 05:55:43;;;;;;;45.40;27.40;;;;;;;5.56;92.22;99467.38;4954526;29;21044;-71
2021/04/20 05:58:11;;;;;;;43.13;26.63;;;;;;;5.44;92.41;99465.16;4952502;29;20223;-70
2021/04/20 06:00:38;;;;;;;38.05;28.77;;;;;;;5.51;92.81;99466.66;4954061;29;20259;-71
2021/04/20 06:03:05;;;;;;;38.35;28.50;;;;;;;5.59;92.61;99461.91;4954367;28;20254;-72
2021/04/20 06:05:32;;;;;;;40.08;27.67;;;;;;;5.69;92.63;99465.06;4953523;29;20931;-72
2021/04/20 06:08:02;;;;;;;46.55;31.75;;;;;;;5.82;92.79;99468.13;4952973;29;20316;-73
2021/04/20 06:10:30;;;;;;;42.28;30.10;;;;;;;5.84;93.89;99464.44;4953605;29;20444;-71
2021/04/20 06:12:57;;;;;;;54.00;31.17;;;;;;;6.00;94.82;99472.72;4954005;28;20312;-73
2021/04/20 06:15:25;;;;;;;51.67;31.80;;;;;;;6.24;95.04;99476.19;4953465;28;20205;-72
2021/04/20 06:17:52;;;;;;;47.95;31.63;;;;;;;6.35;95.01;99462.34;4953238;29;20254;-73
2021/04/20 06:20:22;;;;;;;45.83;29.52;;;;;;;6.56;94.64;99470.41;4953120;29;20347;-71
2021/04/20 06:22:50;;;;;;;54.47;33.25;;;;;;;6.71;93.69;99471.50;4953550;29;20697;-69
2021/04/20 06:25:17;;;;;;;48.10;31.38;;;;;;;6.68;93.29;99477.88;4953498;28;20235;-71
2021/04/20 06:27:44;;;;;;;55.75;32.97;;;;;;;6.86;92.26;99477.06;4953424;29;20204;-70
2021/04/20 06:30:12;;;;;;;52.95;32.42;;;;;;;7.03;91.54;99484.34;4953337;28;20276;-69
2021/04/20 06:32:41;;;;;;;49.47;32.05;;;;;;;7.08;90.62;99470.75;4953639;28;20611;-69
2021/04/20 06:35:11;;;;;;;55.92;33.55;;;;;;;7.07;90.19;99479.69;4953320;29;20291;-68
2021/04/20 06:37:38;;;;;;;48.20;30.77;;;;;;;7.22;89.31;99483.50;4953509;29;20612;-69
2021/04/20 06:40:09;;;;;;;51.78;32.35;;;;;;;7.12;89.17;99476.81;4953445;28;20290;-70
2021/04/20 06:42:41;;;;;;;54.08;33.58;;;;;;;7.15;89.27;99476.69;4953602;29;20193;-70
2021/04/20 06:45:11;;;;;;;46.33;30.33;;;;;;;7.10;89.16;99474.22;4953360;29;20619;-69
2021/04/20 06:47:43;;;;;;;45.22;29.88;;;;;;;7.22;88.38;99487.03;4953268;29;20185;-69
2021/04/20 06:50:12;;;;;;;45.85;32.65;;;;;;;7.39;87.69;99474.66;4953111;29;20196;-69
2021/04/20 06:52:48;;;;;;;46.38;31.05;;;;;;;7.31;88.03;99483.94;4953609;28;20280;-70
2021/04/20 06:55:22;;;;;;;42.13;29.35;;;;;;;7.12;88.34;99480.34;4953332;29;20198;-69
2021/04/20 06:57:53;;;;;;;48.35;32.90;;;;;;;7.12;89.48;99469.63;4953148;29;20299;-69
2021/04/20 07:00:24;;;;;;;37.90;28.02;;;;;;;7.37;88.58;99476.53;4953464;29;20212;-70
2021/04/20 07:03:10;;;;;;;41.10;27.98;;;;;;;7.42;88.21;99477.22;4953637;28;20658;-70
2021/04/20 07:05:49;;;;;;;39.03;27.48;;;;;;;7.73;87.04;99479.28;4953031;29;20275;-70
2021/04/20 07:08:23;;;;;;;40.35;26.30;;;;;;;7.92;85.77;99472.09;4953297;29;20181;-70
2021/04/20 07:10:51;;;;;;;40.50;28.20;;;;;;;8.02;85.53;99476.97;4953197;29;20223;-70
2021/04/20 07:13:20;;;;;;;42.85;30.15;;;;;;;8.38;84.60;99474.25;4953738;29;20624;-69
2021/04/20 07:15:50;;;;;;;36.33;28.33;;;;;;;8.61;83.20;99477.59;4955304;28;20212;-69
2021/04/20 07:18:52;;;;;;;40.55;27.88;;;;;;;8.52;82.91;99469.09;4957230;29;20212;-69
2021/04/20 07:21:53;;;;;;;35.00;26.20;;;;;;;8.60;83.38;99465.16;4957589;29;20195;-69
2021/04/20 07:24:21;;;;;;;41.38;27.83;;;;;;;8.88;82.44;99465.41;4957168;29;20623;-70
2021/04/20 07:27:15;;;;;;;38.45;26.38;;;;;;;8.98;81.17;99469.34;4957409;28;20620;-71
2021/04/20 07:29:54;;;;;;;40.72;28.23;;;;;;;9.23;80.71;99475.22;4956728;28;20206;-70
2021/04/20 07:32:31;;;;;;;37.80;27.38;;;;;;;9.58;79.10;99470.56;4957241;29;20206;-69
2021/04/20 07:35:17;;;;;;;41.17;29.23;;;;;;;9.69;78.70;99469.97;4957106;28;20617;-70
2021/04/20 07:37:47;;;;;;;38.80;28.45;;;;;;;9.94;78.41;99464.91;4956683;29;20214;-70
2021/04/20 07:40:25;;;;;;;40.72;28.30;;;;;;;10.07;78.03;99472.31;4956834;29;20212;-70
2021/04/20 07:43:06;;;;;;;36.75;27.13;;;;;;;10.20;77.54;99467.94;4957129;29;20230;-70
2021/04/20 07:45:39;;;;;;;35.38;27.30;;;;;;;10.48;76.72;99467.19;4956616;29;20241;-70
2021/04/20 07:48:14;;;;;;;37.40;28.27;;;;;;;10.68;75.75;99468.69;4956544;28;20258;-70
2021/04/20 07:50:47;;;;;;;42.20;29.50;;;;;;;10.69;75.69;99473.09;4956525;28;20305;-70
2021/04/20 07:53:19;;;;;;;39.83;28.48;;;;;;;10.94;74.56;99464.38;4956689;29;20214;-69
2021/04/20 07:55:53;;;;;;;35.40;26.60;;;;;;;11.18;73.72;99471.91;4956710;29;20208;-69
2021/04/20 07:58:22;;;;;;;38.55;28.13;;;;;;;11.25;73.25;99463.34;4956668;28;20230;-70
2021/04/20 08:00:57;;;;;;;34.00;27.10;;;;;;;11.32;73.21;99458.44;4956294;28;20214;-70
2021/04/20 08:03:26;;;;;;;38.85;26.73;;;;;;;11.54;72.09;99457.06;4937171;29;20663;-69
2021/04/20 08:05:57;;;;;;;34.67;26.55;;;;;;;11.72;71.96;99449.63;4947534;29;20243;-72
2021/04/20 08:08:32;;;;;;;32.30;25.80;;;;;;;11.89;71.04;99452.09;4956749;28;20646;-70
2021/04/20 08:11:02;;;;;;;32.17;25.23;;;;;;;12.05;70.71;99446.53;4956179;28;20251;-71
2021/04/20 08:13:37;;;;;;;32.92;24.63;;;;;;;12.22;70.39;99451.69;4956603;28;20193;-71
2021/04/20 08:16:12;;;;;;;31.73;25.27;;;;;;;11.94;71.35;99451.78;4956549;28;21136;-69
2021/04/20 08:18:48;;;;;;;29.98;25.05;;;;;;;12.23;70.40;99445.34;4955961;28;20233;-69
2021/04/20 08:21:15;;;;;;;30.75;24.48;;;;;;;12.44;69.72;99443.00;4955978;28;20687;-70
2021/04/20 08:23:49;;;;;;;31.83;25.15;;;;;;;12.68;68.59;99444.97;4955888;28;20200;-71
2021/04/20 08:26:23;;;;;;;31.27;24.70;;;;;;;12.98;67.69;99447.41;4955655;28;20188;-71
2021/04/20 08:28:55;;;;;;;33.42;26.85;;;;;;;13.15;67.16;99438.06;4955799;28;20216;-69
2021/04/20 08:31:31;;;;;;;32.15;23.85;;;;;;;13.25;67.10;99438.28;4956262;28;20301;-70
2021/04/20 08:34:04;;;;;;;33.17;24.92;;;;;;;12.71;68.03;99434.84;4956138;28;20196;-70
2021/04/20 08:36:37;;;;;;;31.40;24.85;;;;;;;12.87;68.05;99434.63;4955354;28;20207;-69
2021/04/20 08:39:11;;;;;;;30.00;25.38;;;;;;;13.20;66.72;99424.22;4954735;28;20220;-71
2021/04/20 08:41:44;;;;;;;32.10;24.88;;;;;;;13.26;66.18;99429.19;4954907;29;20281;-72
2021/04/20 08:44:19;;;;;;;34.17;24.73;;;;;;;13.53;65.45;99427.22;4950040;28;20196;-72
2021/04/20 08:46:54;;;;;;;32.70;26.05;;;;;;;13.59;65.19;99430.44;4955247;28;20643;-71
2021/04/20 08:49:31;;;;;;;34.95;26.08;;;;;;;13.88;63.93;99428.31;4955014;29;20202;-71
2021/04/20 08:52:03;;;;;;;32.67;25.05;;;;;;;14.13;63.17;99433.63;4955372;29;20236;-69
2021/04/20 08:54:52;;;;;;;31.60;25.08;;;;;;;13.84;63.14;99433.09;4953984;29;20193;-71
2021/04/20 08:57:26;;;;;;;32.70;25.13;;;;;;;13.83;62.97;99436.75;4954668;29;20620;-71
2021/04/20 09:00:10;;;;;;;31.42;23.77;;;;;;;14.16;62.52;99438.78;4955178;29;20647;-72
2021/04/20 09:02:49;;;;;;;28.65;24.80;;;;;;;14.22;61.42;99439.31;4955290;29;20205;-73
2021/04/20 09:05:22;;;;;;;29.83;24.23;;;;;;;13.97;62.20;99430.31;4954582;29;20246;-70
2021/04/20 09:07:57;;;;;;;29.77;23.83;;;;;;;14.51;60.81;99431.66;4952641;29;20200;-71
2021/04/20 09:10:31;;;;;;;27.73;22.45;;;;;;;14.65;59.05;99434.19;4954987;28;20207;-71
2021/04/20 09:13:05;;;;;;;28.65;25.20;;;;;;;14.82;59.13;99434.75;4954992;29;20616;-70
2021/04/20 09:15:37;;;;;;;29.85;25.00;;;;;;;14.96;57.72;99431.81;4954862;29;20652;-70
2021/04/20 09:18:08;;;;;;;25.90;21.73;;;;;;;14.89;56.35;99433.28;4953649;28;20229;-71
2021/04/20 09:20:41;;;;;;;27.92;22.70;;;;;;;15.01;56.37;99429.56;4954921;29;20206;-70
2021/04/20 09:23:21;;;;;;;29.08;23.70;;;;;;;15.00;56.24;99434.16;4935606;29;20286;-72
2021/04/20 09:25:57;;;;;;;26.42;22.08;;;;;;;15.11;55.75;99427.88;4954153;29;20668;-70
2021/04/20 09:28:30;;;;;;;25.15;22.38;;;;;;;15.37;55.67;99425.78;4954228;29;20214;-73
2021/04/20 09:31:04;;;;;;;25.95;20.85;;;;;;;15.47;54.66;99428.63;4954969;28;20257;-69
2021/04/20 09:33:37;;;;;;;27.50;23.20;;;;;;;15.51;55.46;99430.09;4954326;29;20212;-69
2021/04/20 09:36:05;;;;;;;25.02;21.35;;;;;;;15.86;54.13;99429.09;4954208;29;20207;-72
2021/04/20 09:38:33;;;;;;;25.00;21.88;;;;;;;16.14;53.01;99421.34;4942730;28;20226;-71
2021/04/20 09:41:01;;;;;;;26.98;22.88;;;;;;;16.38;52.72;99415.69;4953987;29;20238;-70
2021/04/20 09:43:32;;;;;;;27.33;22.85;;;;;;;16.73;51.89;99418.09;4954048;29;20215;-73
2021/04/20 09:46:08;;;;;;;26.77;22.35;;;;;;;16.72;50.41;99419.09;4954576;28;20574;-72
2021/04/20 09:48:44;;;;;;;25.00;20.52;;;;;;;16.80;49.14;99413.00;4952839;28;20192;-72
2021/04/20 09:51:14;;;;;;;19.55;17.45;;;;;;;16.39;50.08;99415.56;4953805;28;20196;-71
2021/04/20 09:53:54;;;;;;;19.50;17.00;;;;;;;16.95;47.54;99410.81;4953749;28;20212;-72
2021/04/20 09:56:29;;;;;;;21.50;18.90;;;;;;;17.27;47.35;99416.13;4954360;28;20212;-73
2021/04/20 09:58:56;;;;;;;21.30;18.35;;;;;;;17.53;46.63;99416.53;4953511;29;20310;-73
2021/04/20 10:01:33;;;;;;;22.73;18.98;;;;;;;16.82;47.38;99416.47;4953792;29;20616;-73
2021/04/20 10:04:07;;;;;;;18.85;16.85;;;;;;;17.32;46.44;99413.00;4952951;28;20208;-73
2021/04/20 10:07:08;;;;;;;20.58;18.45;;;;;;;17.80;45.51;99410.44;4953792;29;20620;-71
2021/04/20 10:09:42;;;;;;;19.73;17.38;;;;;;;18.06;44.82;99418.97;4953997;28;20246;-72
2021/04/20 10:12:24;;;;;;;18.08;14.25;;;;;;;17.99;42.87;99419.69;4953586;28;20204;-73
2021/04/20 10:15:03;;;;;;;16.65;14.55;;;;;;;17.83;43.70;99409.34;4953710;29;20189;-72
2021/04/20 10:17:37;;;;;;;16.48;14.77;;;;;;;17.88;42.80;99401.59;4953633;29;20614;-73
2021/04/20 10:20:15;;;;;;;17.42;15.45;;;;;;;18.25;42.54;99395.50;4952891;29;20219;-73
2021/04/20 10:22:47;;;;;;;17.20;15.40;;;;;;;18.32;42.58;99404.81;4953250;29;20547;-73
2021/04/20 10:25:20;;;;;;;18.20;15.70;;;;;;;18.45;42.54;99401.78;4953343;29;20244;-74
2021/04/20 10:27:54;;;;;;;16.30;14.55;;;;;;;18.43;41.76;99398.31;4952787;29;20265;-72
2021/04/20 10:30:29;;;;;;;17.75;15.07;;;;;;;18.64;41.10;99393.59;4953355;29;20240;-73
2021/04/20 10:32:57;;;;;;;15.88;14.15;;;;;;;18.84;40.11;99391.72;4953357;28;20211;-73
2021/04/20 10:35:28;;;;;;;16.38;14.10;;;;;;;17.51;43.22;99383.16;4952872;29;20248;-71
2021/04/20 10:37:59;;;;;;;18.50;16.08;;;;;;;17.99;42.81;99395.16;4953091;29;20216;-74
2021/04/20 10:40:31;;;;;;;19.17;15.23;;;;;;;18.35;42.54;99390.88;4953594;29;20185;-72
2021/04/20 10:43:03;;;;;;;20.30;14.05;;;;;;;18.57;41.66;99391.59;4953224;28;20223;-71
2021/04/20 10:45:32;;;;;;;14.95;13.35;;;;;;;18.20;41.60;99384.97;4952295;28;20206;-72
2021/04/20 10:48:00;;;;;;;14.75;13.18;;;;;;;17.81;42.63;99379.50;4953291;28;20236;-72
2021/04/20 10:50:29;;;;;;;18.35;15.80;;;;;;;18.23;41.82;99386.59;4952509;28;20263;-71
2021/04/20 10:53:02;;;;;;;19.30;16.15;;;;;;;18.84;41.04;99383.53;4934605;29;20634;-72
2021/04/20 10:55:31;;;;;;;16.88;15.07;;;;;;;19.41;39.02;99377.16;4953309;29;20185;-70
2021/04/20 10:57:59;;;;;;;14.75;12.38;;;;;;;19.16;39.44;99385.00;4952366;29;20214;-72
2021/04/20 11:00:27;;;;;;;18.25;16.00;;;;;;;18.72;40.57;99371.91;4952461;28;20203;-73
2021/04/20 11:02:57;;;;;;;16.30;12.27;;;;;;;18.00;41.18;99365.06;4953314;28;20259;-74
2021/04/20 11:05:25;;;;;;;14.90;12.98;;;;;;;17.99;40.85;99359.75;4952497;28;20236;-73
2021/04/20 11:07:52;;;;;;;13.65;11.88;;;;;;;18.73;39.32;99361.84;4952895;29;20325;-73
2021/04/20 11:10:21;;;;;;;15.77;12.95;;;;;;;18.91;38.87;99351.91;4952717;29;20241;-71
2021/04/20 11:12:49;;;;;;;13.50;10.65;;;;;;;19.20;38.22;99359.16;4953212;29;20202;-72
2021/04/20 11:15:24;;;;;;;13.70;11.50;;;;;;;18.70;38.61;99352.09;4953086;29;20265;-72
2021/04/20 11:18:11;;;;;;;13.77;12.27;;;;;;;18.84;38.96;99349.94;4953148;29;20229;-72
2021/04/20 11:20:39;;;;;;;12.48;10.35;;;;;;;18.36;38.70;99348.13;4952937;28;20528;-71
2021/04/20 11:23:25;;;;;;;10.63;9.63;;;;;;;18.41;38.68;99352.16;4953087;29;20707;-72
2021/04/20 11:26:02;;;;;;;10.88;9.75;;;;;;;18.94;36.40;99343.44;4952492;29;20222;-74
2021/04/20 11:28:33;;;;;;;11.73;10.50;;;;;;;18.80;36.92;99338.47;4952792;29;20231;-72
2021/04/20 11:31:02;;;;;;;13.32;10.30;;;;;;;18.94;36.41;99342.56;4952469;28;20221;-72
2021/04/20 11:33:34;;;;;;;11.70;10.10;;;;;;;18.63;36.76;99337.34;4952809;29;20606;-71